Watford Cty, North Dakota
Current Conditions -  °F | °C
As of 12:52 AM on Friday 31 Oct 2014 (Local Time) from KISN Reporting Station
Overcast Overcast  
Wind Chill: 20°   Ceiling: 1600
Heat Index: 29°   Visibility: 10mi
Dew Point: 23°   Wind: 10mph
Humidity: 78%   Direction: 130°SE
Pressure: 30.49"   Gusts: NA
Location:  47.8267°N, 103.206°W
Report Text: KISN 310552Z AUTO 13009KT 10SM OVC016 M02/M05 A3049 RMK AO2 SLP349 T10171050 10022 21017 400331017 58008
Loading
Personal Weather Stations






























Interactive Weather Map
Tropical Storm Tracking
New forecast layout! Learn more

10-Day Weather Forecast

Advertisements
Track Severe Weather on mobile